Time;durP1;ratioP1;P1;durP2;ratioP2;P2;SDS_P1;SDS_P2;PMS_P1;PMS_P2;Temp;Humidity;BMP_temperature;BMP_pressure;BME280_temperature;BME280_humidity;BME280_pressure;Samples;Min_cycle;Max_cycle;Signal;HPM_P1;HPM_P2
2021/12/26 00:01:12;;;;;;;;;;;;;;;-144.99;97.74;52770.16;5087248;28;19924;-78
2021/12/26 00:03:40;;;;;;;;;;;;;;;-144.99;98.00;52784.44;5087536;28;19924;-78
2021/12/26 00:06:09;;;;;;;;;;;;;;;-144.99;97.74;52729.38;5087715;28;19923;-76
2021/12/26 00:08:36;;;;;;;;;;;;;;;-144.99;97.60;52810.94;5087704;28;20010;-77
2021/12/26 00:11:02;;;;;;;;;;;;;;;-144.99;97.52;52770.16;5087822;28;19924;-78
2021/12/26 00:13:31;;;;;;;;;;;;;;;-144.99;98.00;52786.47;5088586;28;19926;-77
2021/12/26 00:15:58;;;;;;;;;;;;;;;-144.99;98.91;52749.78;5088667;28;19975;-77
2021/12/26 00:18:24;;;;;;;;;;;;;;;-144.99;98.84;52784.44;5092313;28;19923;-76
2021/12/26 00:20:50;;;;;;;;;;;;;;;-144.99;98.72;52794.63;5090163;28;19920;-77
2021/12/26 00:23:17;;;;;;;;;;;;;;;-144.99;98.74;52782.38;5091488;28;19923;-77
2021/12/26 00:25:44;;;;;;;;;;;;;;;-144.99;98.69;52792.56;5090793;28;19926;-78
2021/12/26 00:28:10;;;;;;;;;;;;;;;-144.99;98.53;52770.16;5092158;28;19920;-78
2021/12/26 00:30:38;;;;;;;;;;;;;;;-144.99;98.52;52784.44;5091584;28;19949;-81
2021/12/26 00:33:04;;;;;;;;;;;;;;;-144.99;98.30;52751.81;5092895;28;19924;-78
2021/12/26 00:35:33;;;;;;;;;;;;;;;-144.99;97.86;52794.63;5091408;28;20523;-78
2021/12/26 00:38:00;;;;;;;;;;;;;;;-144.99;97.34;52766.09;5087684;28;19924;-77
2021/12/26 00:40:27;;;;;;;;;;;;;;;-144.99;97.13;52766.09;5093214;28;19998;-77
2021/12/26 00:42:54;;;;;;;;;;;;;;;-144.99;97.94;52766.09;5090418;28;19956;-78
2021/12/26 00:45:21;;;;;;;;;;;;;;;-144.99;98.73;52770.16;5091950;28;19920;-78
2021/12/26 00:47:48;;;;;;;;;;;;;;;-144.99;98.94;52790.53;5090420;28;20064;-78
2021/12/26 00:50:17;;;;;;;;;;;;;;;-144.99;98.73;52753.84;5092531;28;20338;-77
2021/12/26 00:52:44;;;;;;;;;;;;;;;-144.99;99.33;52782.38;5092298;28;19927;-78
2021/12/26 00:55:14;;;;;;;;;;;;;;;-144.99;99.01;52747.72;5089835;28;19931;-78
2021/12/26 00:57:41;;;;;;;;;;;;;;;-144.99;99.09;52762.00;5092504;28;19920;-79
2021/12/26 01:00:10;;;;;;;;;;;;;;;-144.99;99.05;52749.78;5092518;28;19924;-79
2021/12/26 01:02:36;;;;;;;;;;;;;;;-144.99;98.89;52772.19;5091909;28;19927;-78
2021/12/26 01:05:06;;;;;;;;;;;;;;;-144.99;98.77;52762.00;5090498;28;19942;-78
2021/12/26 01:07:42;;;;;;;;;;;;;;;-144.99;98.41;52759.97;5092389;28;19920;-79
2021/12/26 01:10:09;;;;;;;;;;;;;;;-144.99;97.95;52729.38;5091315;28;19924;-78
2021/12/26 01:12:36;;;;;;;;;;;;;;;-144.99;98.42;52770.16;5091977;28;20287;-78
2021/12/26 01:15:08;;;;;;;;;;;;;;;-144.99;98.33;52766.09;5090901;28;21331;-78
2021/12/26 01:17:35;;;;;;;;;;;;;;;-144.99;98.11;52743.66;5091242;28;20470;-78
2021/12/26 01:20:03;;;;;;;;;;;;;;;-144.99;98.63;52774.22;5090481;28;19950;-77
2021/12/26 01:22:31;;;;;;;;;;;;;;;-144.99;99.10;52770.16;5090425;28;20273;-78
2021/12/26 01:24:58;;;;;;;;;;;;;;;-144.99;98.98;52788.50;5088074;28;19928;-77
2021/12/26 01:27:25;;;;;;;;;;;;;;;-144.99;98.35;52766.09;5091894;28;19924;-78
2021/12/26 01:29:51;;;;;;;;;;;;;;;-144.99;98.06;52745.69;5092224;28;19920;-79
2021/12/26 01:32:18;;;;;;;;;;;;;;;-144.99;98.40;52794.63;5096269;22;19928;-72
2021/12/26 01:34:45;;;;;;;;;;;;;;;-144.99;98.06;52762.00;5069042;28;19925;-72
2021/12/26 01:37:11;;;;;;;;;;;;;;;-144.99;98.79;52753.84;5069631;28;19928;-70
2021/12/26 01:39:39;;;;;;;;;;;;;;;-144.99;99.71;52749.78;5071205;28;19961;-69
2021/12/26 01:42:08;;;;;;;;;;;;;;;-144.99;99.46;52802.78;5071447;28;19928;-70
2021/12/26 01:44:35;;;;;;;;;;;;;;;-144.99;99.38;52774.22;5072045;28;19964;-71
2021/12/26 01:47:01;;;;;;;;;;;;;;;-144.99;99.93;52772.19;5075722;28;19920;-71
2021/12/26 01:49:29;;;;;;;;;;;;;;;-144.99;100.00;52733.47;5069514;28;19957;-70
2021/12/26 01:51:57;;;;;;;;;;;;;;;-144.99;100.00;52782.38;5069552;28;20374;-70
2021/12/26 01:54:30;;;;;;;;;;;;;;;-144.99;100.00;52757.94;5067219;28;19920;-72
2021/12/26 01:57:00;;;;;;;;;;;;;;;-144.99;100.00;52745.69;5066650;28;20293;-71
2021/12/26 01:59:27;;;;;;;;;;;;;;;-144.99;100.00;52725.31;5069299;28;19959;-70
2021/12/26 02:01:55;;;;;;;;;;;;;;;-144.99;100.00;52782.38;5070022;28;19920;-71
2021/12/26 02:04:21;;;;;;;;;;;;;;;-144.99;100.00;52735.50;5069257;28;19921;-71
2021/12/26 02:06:48;;;;;;;;;;;;;;;-144.99;100.00;52762.00;5070139;28;19931;-71
2021/12/26 02:09:14;;;;;;;;;;;;;;;-144.99;100.00;52749.78;5068426;28;20436;-71
2021/12/26 02:11:41;;;;;;;;;;;;;;;-144.99;99.76;52798.69;5069221;28;19920;-71
2021/12/26 02:14:10;;;;;;;;;;;;;;;-144.99;100.00;52751.81;5065330;28;21497;-71
2021/12/26 02:16:36;;;;;;;;;;;;;;;-144.99;100.00;52709.00;5069470;28;20387;-70
2021/12/26 02:19:03;;;;;;;;;;;;;;;-144.99;100.00;52790.53;5068445;28;20379;-69
2021/12/26 02:21:49;;;;;;;;;;;;;;;-144.99;100.00;52766.09;5069865;28;19939;-70
2021/12/26 02:24:20;;;;;;;;;;;;;;;-144.99;100.00;52786.47;5066708;28;20027;-71
2021/12/26 02:29:30;;;;;;;;;;;;;;;-144.99;100.00;52762.00;5069388;28;19948;-71
2021/12/26 02:31:57;;;;;;;;;;;;;;;-144.99;100.00;52729.38;5069760;28;19924;-70
2021/12/26 02:34:23;;;;;;;;;;;;;;;-144.99;100.00;52770.16;5068278;28;19928;-71
2021/12/26 02:36:51;;;;;;;;;;;;;;;-144.99;100.00;52733.47;5071045;28;19935;-71
2021/12/26 02:39:17;;;;;;;;;;;;;;;-144.99;100.00;52782.38;5067417;28;19924;-71
2021/12/26 02:41:44;;;;;;;;;;;;;;;-144.99;100.00;52709.00;5074980;28;19932;-71
2021/12/26 02:44:10;;;;;;;;;;;;;;;-144.99;100.00;52772.19;5075840;28;19936;-71
2021/12/26 02:46:36;;;;;;;;;;;;;;;-144.99;100.00;52725.31;5074517;28;19929;-71
2021/12/26 02:49:02;;;;;;;;;;;;;;;-144.99;100.00;52778.31;5074124;28;19928;-71
2021/12/26 02:51:29;;;;;;;;;;;;;;;-144.99;100.00;52757.94;5075793;28;19932;-70
2021/12/26 02:53:57;;;;;;;;;;;;;;;-144.99;100.00;52766.09;5089616;28;19987;-72
2021/12/26 02:56:24;;;;;;;;;;;;;;;-144.99;100.00;52786.47;5090763;28;19925;-71
2021/12/26 02:58:50;;;;;;;;;;;;;;;-144.99;100.00;52727.34;5090630;28;19925;-71
2021/12/26 03:01:18;;;;;;;;;;;;;;;-144.99;100.00;52774.22;5093389;28;19912;-71
2021/12/26 03:03:45;;;;;;;;;;;;;;;-144.99;100.00;52786.47;5095230;28;19931;-72
2021/12/26 03:06:18;;;;;;;;;;;;;;;-144.99;100.00;52780.34;5077308;28;19925;-71
2021/12/26 03:08:46;;;;;;;;;;;;;;;-144.99;100.00;52766.09;5075789;28;20367;-71
2021/12/26 03:11:14;;;;;;;;;;;;;;;-144.99;100.00;52790.53;5069450;28;20422;-71
2021/12/26 03:13:41;;;;;;;;;;;;;;;-144.99;100.00;52766.09;5077057;28;20301;-71
2021/12/26 03:16:07;;;;;;;;;;;;;;;-144.99;100.00;52768.13;5073243;28;19925;-70
2021/12/26 03:18:33;;;;;;;;;;;;;;;-144.99;100.00;52743.66;5071548;28;19959;-71
2021/12/26 03:21:00;;;;;;;;;;;;;;;-144.99;100.00;52786.47;5071185;28;19931;-69
2021/12/26 03:23:27;;;;;;;;;;;;;;;-144.99;100.00;52778.31;5078107;28;19935;-70
2021/12/26 03:25:54;;;;;;;;;;;;;;;-144.99;100.00;52762.00;5071289;28;20424;-71
2021/12/26 03:28:22;;;;;;;;;;;;;;;-144.99;100.00;52766.09;5073916;28;19947;-70
2021/12/26 03:30:50;;;;;;;;;;;;;;;-144.99;100.00;52713.09;5068715;28;19933;-71
2021/12/26 03:33:16;;;;;;;;;;;;;;;-144.99;100.00;52741.63;5075826;28;19928;-71
2021/12/26 03:35:43;;;;;;;;;;;;;;;-144.99;100.00;52733.47;5072719;28;19928;-71
2021/12/26 03:38:10;;;;;;;;;;;;;;;-144.99;100.00;52766.09;5066909;28;19930;-71
2021/12/26 03:40:37;;;;;;;;;;;;;;;-144.99;100.00;52810.94;5068755;28;19924;-71
2021/12/26 03:43:04;;;;;;;;;;;;;;;-144.99;100.00;52739.56;5071266;28;19932;-71
2021/12/26 03:45:31;;;;;;;;;;;;;;;-144.99;100.00;52757.94;5070022;28;19931;-71
2021/12/26 03:47:58;;;;;;;;;;;;;;;-144.99;100.00;52768.13;5071363;28;19924;-71
2021/12/26 03:50:27;;;;;;;;;;;;;;;-144.99;100.00;52766.09;5071896;28;19924;-70
2021/12/26 03:52:56;;;;;;;;;;;;;;;-144.99;100.00;52778.31;5075619;28;19937;-70
2021/12/26 03:55:23;;;;;;;;;;;;;;;-144.99;100.00;52757.94;5070960;28;20371;-71
2021/12/26 03:57:49;;;;;;;;;;;;;;;-144.99;100.00;52762.00;5076081;28;20391;-70
2021/12/26 04:00:16;;;;;;;;;;;;;;;-144.99;100.00;52749.78;5062772;28;19936;-71
2021/12/26 04:02:44;;;;;;;;;;;;;;;-144.99;100.00;52753.84;5073601;28;20105;-69
2021/12/26 04:05:10;;;;;;;;;;;;;;;-144.99;100.00;52743.66;5073737;28;19944;-70
2021/12/26 04:07:37;;;;;;;;;;;;;;;-144.99;100.00;52772.19;5072096;28;19962;-70
2021/12/26 04:10:03;;;;;;;;;;;;;;;-144.99;100.00;52757.94;5071207;28;19932;-70
2021/12/26 04:12:35;;;;;;;;;;;;;;;-144.99;100.00;52780.34;5078452;28;19932;-71
2021/12/26 04:15:01;;;;;;;;;;;;;;;-144.99;100.00;52762.00;5072334;28;20306;-71
2021/12/26 04:17:28;;;;;;;;;;;;;;;-144.99;100.00;52725.31;5063063;28;19924;-71
2021/12/26 04:19:55;;;;;;;;;;;;;;;-144.99;100.00;52774.22;5067726;28;19931;-69
2021/12/26 04:22:22;;;;;;;;;;;;;;;-144.99;100.00;52776.28;5078851;28;20059;-70
2021/12/26 04:24:48;;;;;;;;;;;;;;;-144.99;100.00;52792.56;5069300;28;19931;-70
2021/12/26 04:27:14;;;;;;;;;;;;;;;-144.99;100.00;52770.16;5076790;28;19997;-70
2021/12/26 04:29:41;;;;;;;;;;;;;;;-144.99;100.00;52762.00;5073539;28;19924;-71
2021/12/26 04:32:07;;;;;;;;;;;;;;;-144.99;100.00;52774.22;5073914;28;19970;-71
2021/12/26 04:34:34;;;;;;;;;;;;;;;-144.99;100.00;52766.09;5076547;28;19928;-72
2021/12/26 04:37:01;;;;;;;;;;;;;;;-144.99;100.00;52757.94;5073972;28;19931;-71
2021/12/26 04:39:28;;;;;;;;;;;;;;;-144.99;100.00;52719.19;5068314;28;20311;-70
2021/12/26 04:41:54;;;;;;;;;;;;;;;-144.99;100.00;52766.09;5071932;28;19932;-70
2021/12/26 04:44:23;;;;;;;;;;;;;;;-144.99;100.00;52753.84;5069344;28;19928;-70
2021/12/26 04:46:49;;;;;;;;;;;;;;;-144.99;100.00;52729.38;5072607;28;20105;-71
2021/12/26 04:49:16;;;;;;;;;;;;;;;-144.99;100.00;52764.03;5071232;28;19932;-69
2021/12/26 04:51:42;;;;;;;;;;;;;;;-144.99;100.00;52762.00;5070181;28;19925;-70
2021/12/26 04:54:10;;;;;;;;;;;;;;;-144.99;100.00;52782.38;5065687;28;20175;-71
2021/12/26 04:56:36;;;;;;;;;;;;;;;-144.99;100.00;52762.00;5067893;28;19974;-72
2021/12/26 04:59:02;;;;;;;;;;;;;;;-144.99;100.00;52762.00;5067982;28;19951;-71
2021/12/26 05:01:29;;;;;;;;;;;;;;;-144.99;100.00;52784.44;5067992;28;19935;-71
2021/12/26 05:03:55;;;;;;;;;;;;;;;-144.99;100.00;52733.47;5070461;28;19925;-70
2021/12/26 05:06:21;;;;;;;;;;;;;;;-144.99;100.00;52772.19;5072141;28;20016;-70
2021/12/26 05:08:48;;;;;;;;;;;;;;;-144.99;100.00;52762.00;5071858;28;20035;-72
2021/12/26 05:11:15;;;;;;;;;;;;;;;-144.99;100.00;52790.53;5091978;28;19908;-73
2021/12/26 05:13:42;;;;;;;;;;;;;;;-144.99;100.00;52753.84;5090413;28;19925;-71
2021/12/26 05:16:08;;;;;;;;;;;;;;;-144.99;100.00;52768.13;5089787;28;19924;-72
2021/12/26 05:18:34;;;;;;;;;;;;;;;-144.99;100.00;52762.00;5090241;28;20002;-71
2021/12/26 05:21:01;;;;;;;;;;;;;;;-144.99;100.00;52770.16;5090425;28;19925;-71
2021/12/26 05:23:27;;;;;;;;;;;;;;;-144.99;100.00;52786.47;5088056;28;19936;-71
2021/12/26 05:25:53;;;;;;;;;;;;;;;-144.99;100.00;52786.47;5090375;28;19924;-73
2021/12/26 05:28:21;;;;;;;;;;;;;;;-144.99;100.00;52762.00;5089887;28;19925;-71
2021/12/26 05:30:47;;;;;;;;;;;;;;;-144.99;100.00;52753.84;5088942;28;20006;-72
2021/12/26 05:33:14;;;;;;;;;;;;;;;-144.99;100.00;52753.84;5089297;28;19913;-73
2021/12/26 05:35:40;;;;;;;;;;;;;;;-144.99;100.00;52782.38;5089495;28;19962;-72
2021/12/26 05:38:07;;;;;;;;;;;;;;;-144.99;100.00;52757.94;5087901;28;19943;-72
2021/12/26 05:40:34;;;;;;;;;;;;;;;-144.99;100.00;52770.16;5088384;28;19992;-73
2021/12/26 05:43:00;;;;;;;;;;;;;;;-144.99;100.00;52766.09;5092693;28;19912;-71
2021/12/26 05:45:28;;;;;;;;;;;;;;;-144.99;100.00;52759.97;5090628;28;19939;-71
2021/12/26 05:47:54;;;;;;;;;;;;;;;-144.99;100.00;52782.38;5086899;28;19950;-71
2021/12/26 05:50:21;;;;;;;;;;;;;;;-144.99;100.00;52770.16;5077269;28;19931;-71
2021/12/26 05:52:48;;;;;;;;;;;;;;;-144.99;100.00;52743.66;5070632;28;19924;-70
2021/12/26 05:55:15;;;;;;;;;;;;;;;-144.99;100.00;52780.34;5068008;28;19936;-71
2021/12/26 05:57:41;;;;;;;;;;;;;;;-144.99;100.00;52762.00;5068497;28;20451;-70
2021/12/26 06:00:09;;;;;;;;;;;;;;;-144.99;100.00;52766.09;5071051;28;19928;-70
2021/12/26 06:02:37;;;;;;;;;;;;;;;-144.99;100.00;52704.94;5069886;28;20319;-70
2021/12/26 06:05:03;;;;;;;;;;;;;;;-144.99;100.00;52788.50;5068437;28;19940;-70
2021/12/26 06:07:29;;;;;;;;;;;;;;;-144.99;100.00;52762.00;5069853;28;19973;-70
2021/12/26 06:09:56;;;;;;;;;;;;;;;-144.99;100.00;52794.63;5067871;28;20310;-70
2021/12/26 06:12:22;;;;;;;;;;;;;;;-144.99;100.00;52764.03;5070048;28;19928;-70
2021/12/26 06:14:48;;;;;;;;;;;;;;;-144.99;100.00;52778.31;5068960;28;19955;-69
2021/12/26 06:17:15;;;;;;;;;;;;;;;-144.99;100.00;52778.31;5067924;28;19925;-69
2021/12/26 06:19:42;;;;;;;;;;;;;;;-144.99;100.00;52762.00;5068523;28;19932;-69
2021/12/26 06:22:09;;;;;;;;;;;;;;;-144.99;100.00;52741.63;5069871;28;19974;-69
2021/12/26 06:24:35;;;;;;;;;;;;;;;-144.99;100.00;52749.78;5066698;28;20398;-69
2021/12/26 06:27:01;;;;;;;;;;;;;;;-144.99;100.00;52782.38;5069552;28;19924;-70
2021/12/26 06:29:28;;;;;;;;;;;;;;;-144.99;100.00;52762.00;5069549;28;19928;-70
2021/12/26 06:31:54;;;;;;;;;;;;;;;-144.99;100.00;52776.28;5065827;28;19924;-71
2021/12/26 06:34:20;;;;;;;;;;;;;;;-144.99;100.00;52757.94;5065606;28;20208;-71
2021/12/26 06:36:48;;;;;;;;;;;;;;;-144.99;100.00;52786.47;5069244;28;19929;-71
2021/12/26 06:39:14;;;;;;;;;;;;;;;-144.99;100.00;52741.63;5067661;28;19925;-70
2021/12/26 06:41:40;;;;;;;;;;;;;;;-144.99;100.00;52757.94;5069059;28;19931;-72
2021/12/26 06:44:07;;;;;;;;;;;;;;;-144.99;100.00;52764.03;5068579;28;19932;-71
2021/12/26 06:46:35;;;;;;;;;;;;;;;-144.99;100.00;52706.97;5069425;28;20383;-70
2021/12/26 06:49:02;;;;;;;;;;;;;;;-144.99;100.00;52729.38;5068719;28;19935;-71
2021/12/26 06:51:28;;;;;;;;;;;;;;;-144.99;100.00;52768.13;5063930;28;19928;-71
2021/12/26 06:53:56;;;;;;;;;;;;;;;-144.99;100.00;52774.22;5072351;28;19938;-70
2021/12/26 06:56:22;;;;;;;;;;;;;;;-144.99;100.00;52757.94;5070117;28;19940;-71
2021/12/26 06:58:48;;;;;;;;;;;;;;;-144.99;100.00;52743.66;5066832;28;19936;-71
2021/12/26 07:01:15;;;;;;;;;;;;;;;-144.99;100.00;52790.53;5073329;28;20365;-71
2021/12/26 07:03:41;;;;;;;;;;;;;;;-144.99;100.00;52766.09;5069279;28;19928;-70
2021/12/26 07:06:07;;;;;;;;;;;;;;;-144.99;100.00;52741.63;5068521;28;19928;-71
2021/12/26 07:08:33;;;;;;;;;;;;;;;-144.99;100.00;52749.78;5067049;28;20087;-71
2021/12/26 07:11:01;;;;;;;;;;;;;;;-144.99;100.00;52745.69;5068581;28;20306;-71
2021/12/26 07:13:27;;;;;;;;;;;;;;;-144.99;100.00;52762.00;5068175;28;19933;-71
2021/12/26 07:15:54;;;;;;;;;;;;;;;-144.99;100.00;52766.09;5069009;28;19936;-70
2021/12/26 07:18:20;;;;;;;;;;;;;;;-144.99;100.00;52743.66;5068779;28;19924;-71
2021/12/26 07:20:46;;;;;;;;;;;;;;;-144.99;100.00;52786.47;5068276;28;19981;-71
2021/12/26 07:23:13;;;;;;;;;;;;;;;-144.99;100.00;52766.09;5068188;28;19928;-71
2021/12/26 07:25:39;;;;;;;;;;;;;;;-144.99;100.00;52749.78;5066773;28;19970;-71
2021/12/26 07:28:07;;;;;;;;;;;;;;;-144.99;100.00;52790.53;5068660;28;19925;-71
2021/12/26 07:30:33;;;;;;;;;;;;;;;-144.99;100.00;52762.00;5068319;28;19932;-70
2021/12/26 07:32:59;;;;;;;;;;;;;;;-144.99;100.00;52733.47;5102020;22;19931;-75
2021/12/26 07:35:26;;;;;;;;;;;;;;;-144.99;100.00;52737.53;5063967;28;19935;-76
2021/12/26 07:37:53;;;;;;;;;;;;;;;-144.99;100.00;52782.38;5072248;28;19924;-77
2021/12/26 07:40:19;;;;;;;;;;;;;;;-144.99;100.00;52786.47;5064254;28;20362;-78
2021/12/26 07:42:45;;;;;;;;;;;;;;;-144.99;100.00;52717.16;5066216;28;19924;-76
2021/12/26 07:45:13;;;;;;;;;;;;;;;-144.99;100.00;52739.56;5052943;28;19971;-77
2021/12/26 07:47:40;;;;;;;;;;;;;;;-144.99;100.00;52745.69;5050138;28;19928;-77
2021/12/26 07:50:07;;;;;;;;;;;;;;;-144.99;100.00;52762.00;5045294;28;19928;-76
2021/12/26 07:52:38;;;;;;;;;;;;;;;-144.99;100.00;52709.00;5046354;28;19970;-74
2021/12/26 07:55:05;;;;;;;;;;;;;;;-144.99;100.00;52745.69;5041348;28;20324;-75
2021/12/26 07:57:31;;;;;;;;;;;;;;;-144.99;100.00;52743.66;5046074;28;20303;-74
2021/12/26 07:59:58;;;;;;;;;;;;;;;-144.99;100.00;52717.16;5045305;28;19929;-74
2021/12/26 08:02:25;;;;;;;;;;;;;;;-144.99;100.00;52713.09;5043442;28;19925;-73
2021/12/26 08:04:52;;;;;;;;;;;;;;;-144.99;100.00;52762.00;5043624;28;20438;-76
2021/12/26 08:07:18;;;;;;;;;;;;;;;-144.99;100.00;52766.09;5044739;28;19928;-78
2021/12/26 08:09:44;;;;;;;;;;;;;;;-144.99;100.00;52741.63;5039847;28;19925;-76
2021/12/26 08:12:11;;;;;;;;;;;;;;;-144.99;100.00;52721.22;5041977;28;19960;-74
2021/12/26 08:14:37;;;;;;;;;;;;;;;-144.99;100.00;52694.72;5042793;28;19944;-76
2021/12/26 08:17:04;;;;;;;;;;;;;;;-144.99;97.64;52749.78;5041873;28;19939;-75
2021/12/26 08:19:32;;;;;;;;;;;;;;;-144.99;99.22;52733.47;5043103;28;19979;-76
2021/12/26 08:21:58;;;;;;;;;;;;;;;-144.99;99.30;52737.53;5044343;28;19932;-78
2021/12/26 08:24:26;;;;;;;;;;;;;;;-144.99;96.64;52721.22;5042782;28;19936;-77
2021/12/26 08:26:53;;;;;;;;;;;;;;;-144.99;93.75;52747.72;5045510;28;19974;-74
2021/12/26 08:29:21;;;;;;;;;;;;;;;-144.99;92.62;52700.84;5044957;28;20298;-75
2021/12/26 08:31:48;;;;;;;;;;;;;;;-144.99;91.29;52700.84;5045131;28;20020;-76
2021/12/26 08:34:19;;;;;;;;;;;;;;;-144.99;91.58;52727.34;5044086;28;19929;-76
2021/12/26 08:36:48;;;;;;;;;;;;;;;-144.99;90.88;52704.94;5044974;28;19928;-77
2021/12/26 08:39:14;;;;;;;;;;;;;;;-144.99;90.46;52717.16;5047471;28;19932;-75
2021/12/26 08:41:41;;;;;;;;;;;;;;;-144.99;87.02;52686.59;5048716;28;19925;-76
2021/12/26 08:44:07;;;;;;;;;;;;;;;-144.99;88.03;52737.53;5047955;28;20387;-73
2021/12/26 08:46:34;;;;;;;;;;;;;;;-144.99;91.21;52721.22;5052109;28;19929;-79
2021/12/26 08:49:00;;;;;;;;;;;;;;;-144.99;87.23;52704.94;5048676;28;19925;-75
2021/12/26 08:51:27;;;;;;;;;;;;;;;-144.99;83.65;52745.69;5052867;28;19929;-77
2021/12/26 08:53:55;;;;;;;;;;;;;;;-144.99;81.75;52766.09;5050779;28;19952;-77
2021/12/26 08:56:21;;;;;;;;;;;;;;;-144.99;80.87;52725.31;5050598;28;20295;-75
2021/12/26 08:58:47;;;;;;;;;;;;;;;-144.99;79.05;52709.00;5051918;28;19933;-78
2021/12/26 09:01:13;;;;;;;;;;;;;;;-144.99;76.49;52737.53;5055528;28;19932;-79
2021/12/26 09:03:40;;;;;;;;;;;;;;;-144.99;76.07;52755.88;5047773;28;19999;-76
2021/12/26 09:06:07;;;;;;;;;;;;;;;-144.99;74.60;52737.53;5052508;28;19931;-75
2021/12/26 09:08:34;;;;;;;;;;;;;;;-144.99;73.80;52715.13;5062583;28;19968;-76
2021/12/26 09:11:01;;;;;;;;;;;;;;;-144.99;72.10;52729.38;5058620;28;19924;-75
2021/12/26 09:13:28;;;;;;;;;;;;;;;-144.99;71.23;52721.22;5053813;28;19937;-78
2021/12/26 09:15:54;;;;;;;;;;;;;;;-144.99;69.18;52745.69;5047288;28;19925;-77
2021/12/26 09:18:20;;;;;;;;;;;;;;;-144.99;70.65;52733.47;5046193;28;19928;-77
2021/12/26 09:20:47;;;;;;;;;;;;;;;-144.99;70.16;52737.53;5046385;28;20367;-76
2021/12/26 09:23:13;;;;;;;;;;;;;;;-144.99;69.46;52690.66;5043003;28;19969;-77
2021/12/26 09:25:40;;;;;;;;;;;;;;;-144.99;67.88;52713.09;5043664;28;19933;-76
2021/12/26 09:28:07;;;;;;;;;;;;;;;-144.99;65.57;52676.38;5045459;28;19931;-77
2021/12/26 09:30:34;;;;;;;99.15;55.13;;;;;;;-144.99;64.28;52692.69;5043026;28;25058;-75
2021/12/26 09:33:00;;;;;;;;;;;;;;;-144.99;64.67;52713.09;5045159;28;20205;-76
2021/12/26 09:35:26;;;;;;;;;;;;;;;-144.99;62.83;52680.47;5043874;28;19932;-77
2021/12/26 09:37:53;;;;;;;;;;;;;;;-144.99;59.41;52713.09;5042561;28;19925;-77
2021/12/26 09:40:19;;;;;;;86.43;53.07;;;;;;;-144.99;58.13;52696.78;5042494;28;20401;-75
2021/12/26 09:42:46;;;;;;;;;;;;;;;-144.99;56.93;52696.78;5042393;28;20654;-75
2021/12/26 09:45:14;;;;;;;;;;;;;;;-144.99;56.60;52692.69;5047613;28;19920;-76
2021/12/26 09:47:41;;;;;;;;;;;;;;;-144.99;56.44;52694.72;5047486;28;19921;-76
2021/12/26 09:50:09;;;;;;;;;;;;;;;-144.99;54.78;52721.22;5048884;28;19931;-76
2021/12/26 09:52:36;;;;;;;;;;;;;;;-144.99;54.48;52692.69;5051465;28;19920;-75
2021/12/26 09:55:03;;;;;;;;;;;;;;;-144.99;54.56;52721.22;5045533;28;19928;-74
2021/12/26 09:57:30;;;;;;;99.63;56.25;;;;;;;-144.99;53.00;52706.97;5051150;28;19921;-74
2021/12/26 09:59:56;;;;;;;;;;;;;;;-144.99;51.85;52664.16;5051708;28;20257;-76
2021/12/26 10:02:24;;;;;;;;;;;;;;;-144.99;51.23;52651.94;5052351;28;19924;-77
2021/12/26 10:04:51;;;;;;;;;;;;;;;-144.99;49.38;52668.22;5051337;28;19920;-76
2021/12/26 10:07:18;;;;;;;;;;;;;;;-144.99;47.81;52676.38;5051582;28;19925;-77
2021/12/26 10:09:46;;;;;;;;;;;;;;;-144.99;47.43;52656.00;5052569;28;19924;-76
2021/12/26 10:12:14;;;;;;;;;;;;;;;-144.99;46.39;52653.97;5051468;28;19953;-77
2021/12/26 10:14:43;;;;;;;;;;;;;;;-144.99;44.67;52625.44;5050935;28;19983;-76
2021/12/26 10:17:11;;;;;;;;;;;;;;;-144.99;44.21;52631.53;5051701;28;19979;-77
2021/12/26 10:19:39;;;;;;;;;;;;;;;-144.99;42.99;52627.47;5051347;28;19927;-76
2021/12/26 10:22:06;;;;;;;;;;;;;;;-144.99;42.39;52594.84;5042575;28;19924;-77
2021/12/26 10:24:33;;;;;;;;;;;;;;;-144.99;41.76;52586.69;5044832;28;19966;-78
2021/12/26 10:27:05;;;;;;;120.83;61.63;;;;;;;-144.99;40.54;52558.16;5048511;28;20362;-75
2021/12/26 10:29:33;;;;;;;125.60;62.88;;;;;;;-144.99;39.49;52533.69;5049292;28;21251;-78
2021/12/26 10:32:04;;;;;;;114.57;60.45;;;;;;;-144.99;38.76;52537.78;5044991;28;20220;-80
2021/12/26 10:34:35;;;;;;;124.23;62.60;;;;;;;-144.99;37.89;52574.47;5042773;28;20518;-77
2021/12/26 10:37:07;;;;;;;127.77;63.30;;;;;;;-144.99;38.06;52533.69;5051331;28;20282;-79
2021/12/26 10:39:37;;;;;;;134.70;65.00;;;;;;;-144.99;36.99;52529.63;5062087;28;20717;-76
2021/12/26 10:42:06;;;;;;;136.40;65.23;;;;;;;-144.99;36.33;52517.41;5051465;28;20212;-76
2021/12/26 10:44:36;;;;;;;143.50;67.23;;;;;;;-144.99;35.79;52529.63;5037199;28;20730;-76
2021/12/26 10:47:06;;;;;;;145.10;67.57;;;;;;;-144.99;35.31;52529.63;5062535;28;20643;-77
2021/12/26 10:49:39;;;;;;;145.07;67.37;;;;;;;-144.99;34.90;52497.00;5068972;28;20686;-78
2021/12/26 10:52:14;;;;;;;140.63;66.77;;;;;;;-144.99;34.54;52472.56;5054389;28;20209;-77
2021/12/26 10:54:44;;;;;;;141.33;66.73;;;;;;;-144.99;34.92;52501.09;5049030;28;20698;-75
2021/12/26 10:57:19;;;;;;;148.30;68.00;;;;;;;-144.99;33.75;52456.25;5050961;28;20217;-74
2021/12/26 10:59:46;;;;;;;;;;;;;;;-144.99;33.39;52456.25;5049425;28;20204;-78
2021/12/26 11:02:22;;;;;;;;;;;;;;;-144.99;32.86;52501.09;5057107;28;19939;-75
2021/12/26 11:04:58;;;;;;;179.02;74.63;;;;;;;-144.99;33.37;52435.88;5048948;28;24632;-78
2021/12/26 11:07:26;;;;;;;162.03;71.63;;;;;;;-144.99;33.11;52435.88;5049908;28;20196;-76
2021/12/26 11:10:06;;;;;;;163.33;71.77;;;;;;;-144.99;33.39;52460.31;5049407;28;20702;-75
2021/12/26 11:12:39;;;;;;;170.37;72.47;;;;;;;-144.99;32.40;52492.94;5047744;28;20201;-77
2021/12/26 11:15:07;;;;;;;170.57;72.23;;;;;;;-144.99;32.46;52456.25;5045725;28;20698;-80
2021/12/26 11:17:35;;;;;;;162.40;70.70;;;;;;;-144.99;32.08;52513.31;5048746;28;20618;-78
2021/12/26 11:20:03;;;;;;;165.20;71.27;;;;;;;-144.99;31.63;52431.78;5044481;28;20654;-77
2021/12/26 11:22:31;;;;;;;163.93;70.50;;;;;;;-144.99;31.50;52472.56;5047677;28;20625;-75
2021/12/26 11:24:58;;;;;;;168.77;72.37;;;;;;;-144.99;31.36;52452.16;5048720;28;21256;-76
2021/12/26 11:27:25;;;;;;;162.73;70.47;;;;;;;-144.99;30.85;52444.03;5046241;28;20655;-77
2021/12/26 11:29:52;;;;;;;164.82;71.20;;;;;;;-144.99;30.87;52444.03;5050039;28;20227;-78
2021/12/26 11:32:18;;;;;;;;;;;;;;;-144.99;30.30;52435.88;5046103;28;20216;-78
2021/12/26 11:34:46;;;;;;;;;;;;;;;-144.99;30.41;52456.25;5037748;28;19921;-77
2021/12/26 11:37:12;;;;;;;167.18;73.22;;;;;;;-144.99;30.26;52494.97;5064579;28;24496;-78
2021/12/26 11:39:41;;;;;;;116.20;55.90;;;;;;;-144.99;29.85;52456.25;5058692;28;20645;-78
2021/12/26 11:42:29;;;;;;;156.70;69.18;;;;;;;-144.99;29.82;52435.88;5048752;28;20209;-78
2021/12/26 11:45:11;;;;;;;129.60;60.95;;;;;;;-144.99;29.58;52460.31;5042799;28;20404;-79
2021/12/26 11:48:21;;;;;;;147.80;68.15;;;;;;;-144.99;29.02;52439.94;5047521;28;20215;-79
2021/12/26 11:50:54;;;;;;;155.48;72.00;;;;;;;-144.99;28.68;52419.56;5043666;28;20792;-79
2021/12/26 11:53:28;;;;;;;;;;;;;;;-144.99;29.21;52425.66;5047754;28;20240;-75
2021/12/26 11:56:12;;;;;;;150.25;70.45;;;;;;;-144.99;29.52;52425.66;5050128;28;24531;-77
2021/12/26 11:58:45;;;;;;;;;;;;;;;-144.99;29.64;52429.75;5051447;28;20220;-78
2021/12/26 12:01:15;;;;;;;150.15;70.60;;;;;;;-144.99;29.12;52456.25;5033607;28;24862;-79
2021/12/26 12:03:42;;;;;;;130.82;65.50;;;;;;;-144.99;28.92;52464.41;5041068;28;20252;-80
2021/12/26 12:06:23;;;;;;;123.40;61.40;;;;;;;-144.99;29.29;52439.94;5044612;28;20908;-79
2021/12/26 12:08:50;;;;;;;127.23;64.07;;;;;;;-144.99;29.05;52431.78;5045060;28;20228;-80
2021/12/26 12:11:18;;;;;;;;;;;;;;;-144.99;29.20;52464.41;5051290;28;20232;-79
2021/12/26 12:13:46;;;;;;;;;;;;;;;-144.99;29.23;52441.97;5048336;28;20720;-78